Time;durP1;ratioP1;P1;durP2;ratioP2;P2;SDS_P1;SDS_P2;PMS_P1;PMS_P2;Temp;Humidity;BMP_temperature;BMP_pressure;BME280_temperature;BME280_humidity;BME280_pressure;Samples;Min_cycle;Max_cycle;Signal;HPM_P1;HPM_P2
2021/05/30 00:00:11;;;;;;;4.03;2.80;;;;;;;15.98;72.48;99881.02;1780117;80;21128;-65
2021/05/30 00:02:38;;;;;;;7.05;2.42;;;;;;;15.99;72.64;99878.55;1780135;80;21864;-65
2021/05/30 00:05:07;;;;;;;3.33;2.33;;;;;;;16.02;72.79;99875.30;1780089;80;21195;-65
2021/05/30 00:07:35;;;;;;;3.00;2.20;;;;;;;16.03;72.48;99867.84;1780097;80;21406;-65
2021/05/30 00:10:04;;;;;;;3.22;2.42;;;;;;;16.06;72.12;99872.33;1780158;79;21148;-65
2021/05/30 00:12:31;;;;;;;4.58;2.58;;;;;;;16.06;71.66;99869.56;1780156;80;21144;-65
2021/05/30 00:15:00;;;;;;;6.17;2.47;;;;;;;16.06;71.40;99876.48;1780109;80;21828;-65
2021/05/30 00:17:27;;;;;;;10.18;2.17;;;;;;;16.06;71.21;99877.02;1780082;79;21152;-65
2021/05/30 00:19:56;;;;;;;4.53;2.35;;;;;;;16.10;70.94;99875.44;1780009;80;21414;-64
2021/05/30 00:22:25;;;;;;;4.47;2.42;;;;;;;16.13;70.71;99869.42;1779954;79;21896;-64
2021/05/30 00:24:53;;;;;;;3.72;2.00;;;;;;;16.11;70.39;99875.20;1780040;80;21868;-65
2021/05/30 00:27:20;;;;;;;2.17;1.90;;;;;;;16.10;70.19;99879.05;1780034;80;21156;-65
2021/05/30 00:29:47;;;;;;;5.17;2.00;;;;;;;16.08;69.77;99875.69;1780029;80;21434;-65
2021/05/30 00:32:15;;;;;;;4.58;1.85;;;;;;;16.08;69.44;99883.98;1779969;79;21459;-65
2021/05/30 00:34:42;;;;;;;5.05;1.98;;;;;;;16.05;69.27;99877.56;1780071;80;21445;-65
2021/05/30 00:37:09;;;;;;;3.20;2.40;;;;;;;16.04;69.09;99874.50;1780017;79;21250;-65
2021/05/30 00:39:38;;;;;;;3.12;1.90;;;;;;;16.04;68.76;99875.89;1780044;79;21966;-65
2021/05/30 00:42:06;;;;;;;4.25;2.10;;;;;;;16.00;68.42;99877.46;1780062;79;21897;-65
2021/05/30 00:44:33;;;;;;;2.72;1.92;;;;;;;15.97;68.40;99879.87;1780069;80;21152;-64
2021/05/30 00:47:01;;;;;;;1.52;1.32;;;;;;;15.96;68.41;99877.66;1780067;79;21382;-64
2021/05/30 00:49:28;;;;;;;9.25;2.00;;;;;;;15.98;67.70;99883.78;1780035;79;21152;-64
2021/05/30 00:51:56;;;;;;;2.15;1.52;;;;;;;15.98;67.29;99887.09;1778668;79;21152;-65
2021/05/30 00:54:24;;;;;;;6.22;1.60;;;;;;;15.95;66.85;99882.89;1776966;79;21132;-64
2021/05/30 00:56:51;;;;;;;5.75;1.67;;;;;;;15.95;66.60;99881.50;1757332;80;21156;-64
2021/05/30 00:59:18;;;;;;;5.17;1.55;;;;;;;15.95;66.23;99891.72;1776985;79;21343;-64
2021/05/30 01:01:47;;;;;;;2.65;1.50;;;;;;;15.95;65.97;99884.27;1776971;80;21368;-64
2021/05/30 01:04:16;;;;;;;2.10;1.50;;;;;;;15.94;65.79;99889.50;1777136;79;21363;-64
2021/05/30 01:06:44;;;;;;;3.40;1.30;;;;;;;15.94;65.67;99889.50;1777061;80;21356;-64
2021/05/30 01:09:11;;;;;;;2.02;1.60;;;;;;;15.90;65.27;99886.09;1777073;79;21326;-64
2021/05/30 01:11:38;;;;;;;2.72;1.40;;;;;;;15.87;65.51;99897.62;1776942;79;21390;-64
2021/05/30 01:14:07;;;;;;;4.25;1.65;;;;;;;15.85;65.82;99894.57;1777017;79;21182;-64
2021/05/30 01:16:34;;;;;;;4.37;1.82;;;;;;;15.85;66.00;99903.40;1733221;80;21187;-64
2021/05/30 01:19:02;;;;;;;2.90;1.55;;;;;;;15.85;66.13;99889.59;1776965;79;21144;-64
2021/05/30 01:21:31;;;;;;;3.35;1.70;;;;;;;15.85;66.00;99889.05;1776990;80;21113;-64
2021/05/30 01:23:59;;;;;;;3.00;1.70;;;;;;;15.86;66.27;99891.27;1776970;80;21892;-64
2021/05/30 01:26:26;;;;;;;4.28;1.50;;;;;;;15.84;66.62;99887.91;1776969;79;21855;-64
2021/05/30 01:28:53;;;;;;;3.83;1.60;;;;;;;15.80;66.73;99883.41;1776991;79;21155;-64
2021/05/30 01:31:22;;;;;;;7.40;3.00;;;;;;;15.74;66.54;99882.17;1776968;79;21152;-64
2021/05/30 01:33:50;;;;;;;4.20;2.42;;;;;;;15.69;66.65;99882.06;1777091;79;21817;-64
2021/05/30 01:36:17;;;;;;;2.45;1.65;;;;;;;15.67;67.10;99878.17;1776920;80;21129;-64
2021/05/30 01:38:46;;;;;;;2.83;1.60;;;;;;;15.66;67.33;99878.41;1776122;80;21168;-65
2021/05/30 01:41:13;;;;;;;5.17;1.60;;;;;;;15.63;67.55;99883.88;1776595;80;21167;-64
2021/05/30 01:43:40;;;;;;;2.30;1.45;;;;;;;15.59;67.51;99888.18;1776945;79;21315;-65
2021/05/30 01:46:08;;;;;;;2.55;1.40;;;;;;;15.57;67.97;99890.31;1776974;79;21152;-64
2021/05/30 01:48:37;;;;;;;4.78;2.40;;;;;;;15.51;68.53;99894.89;1777122;79;21164;-65
2021/05/30 01:51:05;;;;;;;25.85;15.90;;;;;;;15.49;68.96;99903.11;1776931;79;21400;-65
2021/05/30 01:58:31;;;;;;;5.10;3.52;;;;;;;15.40;69.29;99904.02;1780005;79;21148;-65
2021/05/30 02:00:59;;;;;;;5.20;2.70;;;;;;;15.38;69.39;99902.05;1779940;79;21299;-65
2021/05/30 02:03:26;;;;;;;3.87;3.00;;;;;;;15.36;69.66;99907.50;1780185;80;21872;-65
2021/05/30 02:05:54;;;;;;;8.28;4.25;;;;;;;15.37;70.08;99910.56;1780017;80;21128;-65
2021/05/30 02:08:22;;;;;;;7.60;3.22;;;;;;;15.37;70.39;99907.27;1780120;80;21144;-64
2021/05/30 02:10:51;;;;;;;3.83;3.00;;;;;;;15.39;70.60;99912.55;1779914;79;21184;-65
2021/05/30 02:13:19;;;;;;;3.62;2.70;;;;;;;15.36;70.81;99899.22;1779952;80;21378;-64
2021/05/30 02:15:46;;;;;;;4.80;2.90;;;;;;;15.36;71.11;99897.84;1762380;80;21163;-65
2021/05/30 02:18:14;;;;;;;6.40;3.40;;;;;;;15.37;71.40;99900.91;1779107;80;21387;-65
2021/05/30 02:20:41;;;;;;;5.85;3.08;;;;;;;15.38;71.70;99894.30;1779639;80;21990;-65
2021/05/30 02:23:12;;;;;;;5.35;3.10;;;;;;;15.40;71.94;99897.66;1779985;80;21139;-65
2021/05/30 02:25:40;;;;;;;3.85;2.98;;;;;;;15.38;72.00;99893.77;1779946;79;21307;-65
2021/05/30 02:28:07;;;;;;;4.08;2.85;;;;;;;15.38;72.19;99898.44;1780000;79;21160;-65
2021/05/30 02:30:34;;;;;;;4.03;2.75;;;;;;;15.40;72.34;99904.56;1780010;80;21285;-64
2021/05/30 02:33:03;;;;;;;5.92;3.27;;;;;;;15.42;72.43;99900.48;1780023;80;21366;-65
2021/05/30 02:35:30;;;;;;;4.10;2.80;;;;;;;15.42;72.52;99904.62;1779988;80;21125;-65
2021/05/30 02:37:58;;;;;;;4.75;2.67;;;;;;;15.43;72.62;99904.08;1780033;79;21179;-65
2021/05/30 02:40:25;;;;;;;5.70;2.85;;;;;;;15.35;72.68;99902.52;1780098;79;21156;-64
2021/05/30 02:42:53;;;;;;;4.05;2.70;;;;;;;15.29;73.02;99906.25;1780072;80;21816;-65
2021/05/30 02:45:20;;;;;;;6.50;3.40;;;;;;;15.29;73.30;99909.01;1780073;80;21141;-65
2021/05/30 02:47:48;;;;;;;8.35;3.55;;;;;;;15.30;73.44;99913.99;1780102;79;21160;-65
2021/05/30 02:50:16;;;;;;;4.30;3.02;;;;;;;15.29;73.54;99913.15;1762428;80;21491;-65
2021/05/30 02:52:44;;;;;;;4.70;3.12;;;;;;;15.33;73.61;99919.87;1778656;79;21262;-65
2021/05/30 02:55:13;;;;;;;4.08;2.92;;;;;;;15.38;73.56;99919.15;1776958;80;21124;-64
2021/05/30 02:57:41;;;;;;;3.77;2.75;;;;;;;15.39;73.49;99910.63;1777035;79;21179;-65
2021/05/30 03:00:10;;;;;;;5.90;3.12;;;;;;;15.39;73.60;99913.92;1777112;79;21204;-65
2021/05/30 03:02:37;;;;;;;3.27;2.98;;;;;;;15.40;73.61;99918.36;1777157;79;21869;-65
2021/05/30 03:05:06;;;;;;;7.50;3.35;;;;;;;15.36;73.64;99908.34;1776982;80;21319;-65
2021/05/30 03:07:35;;;;;;;4.50;2.95;;;;;;;15.37;73.74;99916.09;1776974;80;21186;-65
2021/05/30 03:10:02;;;;;;;3.33;2.80;;;;;;;15.36;73.69;99920.77;1777040;79;21136;-65
2021/05/30 03:12:29;;;;;;;3.83;3.05;;;;;;;15.35;73.78;99922.39;1777029;80;21315;-65
2021/05/30 03:14:57;;;;;;;6.25;3.10;;;;;;;15.38;73.82;99921.91;1777181;80;21375;-65
2021/05/30 03:17:26;;;;;;;4.55;3.30;;;;;;;15.40;73.77;99923.89;1777011;80;21176;-64
2021/05/30 03:19:54;;;;;;;4.55;2.90;;;;;;;15.41;73.75;99930.55;1777030;80;21176;-65
2021/05/30 03:22:21;;;;;;;4.25;3.08;;;;;;;15.42;73.63;99930.84;1777045;79;21140;-64
2021/05/30 03:24:48;;;;;;;4.60;3.00;;;;;;;15.44;73.54;99930.06;1777011;80;21130;-64
2021/05/30 03:27:15;;;;;;;5.92;2.52;;;;;;;15.48;73.36;99927.66;1777045;80;21850;-64
2021/05/30 03:29:44;;;;;;;4.28;2.85;;;;;;;15.48;73.32;99920.76;1777137;79;21140;-65
2021/05/30 03:32:11;;;;;;;3.90;2.98;;;;;;;15.48;73.13;99924.90;1777066;80;21168;-64
2021/05/30 03:34:39;;;;;;;4.12;3.12;;;;;;;15.51;73.18;99929.94;1777072;79;21113;-64
2021/05/30 03:37:07;;;;;;;5.12;3.00;;;;;;;15.57;73.07;99931.73;1776999;80;21167;-64
2021/05/30 03:39:39;;;;;;;6.17;2.90;;;;;;;15.64;72.89;99928.37;1777019;80;21125;-64
2021/05/30 03:42:09;;;;;;;5.50;2.67;;;;;;;15.69;72.57;99934.00;1776928;79;21874;-64
2021/05/30 03:44:37;;;;;;;6.03;3.10;;;;;;;15.71;72.26;99934.59;1777047;80;21395;-64
2021/05/30 03:47:04;;;;;;;7.12;3.37;;;;;;;15.69;72.14;99929.02;1776950;79;21453;-64
2021/05/30 03:49:33;;;;;;;5.62;2.90;;;;;;;15.68;72.12;99934.25;1777089;79;21830;-64
2021/05/30 03:52:00;;;;;;;6.12;3.37;;;;;;;15.68;71.99;99932.87;1776921;79;21167;-64
2021/05/30 03:54:27;;;;;;;4.55;3.05;;;;;;;15.65;71.81;99937.49;1780019;79;21195;-64
2021/05/30 03:56:55;;;;;;;4.53;3.33;;;;;;;15.60;71.92;99938.19;1780045;79;21132;-64
2021/05/30 03:59:23;;;;;;;6.15;3.12;;;;;;;15.57;72.05;99941.40;1780046;80;21414;-65
2021/05/30 04:01:50;;;;;;;4.03;3.17;;;;;;;15.62;72.14;99942.12;1780038;79;21167;-65
2021/05/30 04:04:17;;;;;;;4.50;3.10;;;;;;;15.65;72.03;99944.39;1780131;80;21413;-65
2021/05/30 04:06:45;;;;;;;4.85;2.90;;;;;;;15.65;71.83;99945.23;1780081;80;21174;-65
2021/05/30 04:09:12;;;;;;;4.62;2.87;;;;;;;15.66;71.86;99941.39;1780018;79;21152;-65
2021/05/30 04:11:40;;;;;;;4.55;3.10;;;;;;;15.67;71.67;99950.52;1780013;79;21399;-65
2021/05/30 04:14:07;;;;;;;4.42;3.40;;;;;;;15.64;71.62;99953.77;1780126;80;21271;-65
2021/05/30 04:16:34;;;;;;;4.10;3.33;;;;;;;15.63;71.76;99954.30;1780003;80;21988;-65
2021/05/30 04:19:02;;;;;;;4.55;2.98;;;;;;;15.66;71.67;99949.67;1779952;79;21390;-65
2021/05/30 04:21:29;;;;;;;4.20;2.85;;;;;;;15.68;71.52;99941.15;1780084;80;21394;-65
2021/05/30 04:23:58;;;;;;;3.20;2.67;;;;;;;15.73;71.66;99933.81;1780019;79;21984;-65
2021/05/30 04:26:26;;;;;;;3.17;2.70;;;;;;;15.81;71.30;99931.22;1780137;80;21868;-65
2021/05/30 04:28:53;;;;;;;3.70;2.72;;;;;;;15.89;70.96;99928.08;1780034;79;21140;-65
2021/05/30 04:31:21;;;;;;;2.92;2.30;;;;;;;15.97;70.58;99926.31;1779902;79;21343;-65
2021/05/30 04:33:48;;;;;;;4.22;2.75;;;;;;;16.04;70.18;99935.84;1778915;80;21445;-66
2021/05/30 04:36:16;;;;;;;2.70;2.10;;;;;;;16.07;69.69;99933.43;1779485;80;21198;-65
2021/05/30 04:38:43;;;;;;;3.80;2.52;;;;;;;16.08;69.68;99933.73;1779979;80;21964;-65
2021/05/30 04:41:11;;;;;;;3.22;2.42;;;;;;;16.11;69.49;99936.55;1779994;80;21144;-65
2021/05/30 04:43:38;;;;;;;5.97;2.80;;;;;;;16.11;69.37;99931.86;1780033;79;21196;-65
2021/05/30 04:46:06;;;;;;;2.92;2.52;;;;;;;16.13;69.26;99925.53;1780038;80;21424;-65
2021/05/30 04:48:35;;;;;;;4.33;2.30;;;;;;;16.18;69.22;99926.18;1779967;79;21128;-65
2021/05/30 04:51:06;;;;;;;2.80;2.30;;;;;;;16.25;68.88;99914.44;1779842;80;21449;-65
2021/05/30 04:53:41;;;;;;;4.97;2.90;;;;;;;16.29;68.63;99930.86;1779901;79;21361;-65
2021/05/30 04:56:10;;;;;;;4.60;2.45;;;;;;;16.28;68.28;99928.34;1779992;79;21203;-65
2021/05/30 04:58:38;;;;;;;3.42;2.45;;;;;;;16.29;68.19;99934.16;1780004;79;21267;-65
2021/05/30 05:01:06;;;;;;;5.95;3.15;;;;;;;16.32;68.04;99945.57;1780044;80;21250;-65
2021/05/30 05:03:34;;;;;;;3.58;2.77;;;;;;;16.32;67.98;99927.60;1780092;79;21278;-65
2021/05/30 05:06:01;;;;;;;3.52;2.05;;;;;;;16.34;67.94;99924.05;1779978;80;21282;-65
2021/05/30 05:08:28;;;;;;;2.87;2.30;;;;;;;16.34;67.72;99921.83;1779918;80;21187;-65
2021/05/30 05:10:56;;;;;;;4.78;2.42;;;;;;;16.38;67.72;99924.39;1778469;79;21450;-65
2021/05/30 05:13:23;;;;;;;3.83;2.20;;;;;;;16.41;67.37;99923.89;1779276;79;21149;-65
2021/05/30 05:15:52;;;;;;;4.97;2.50;;;;;;;16.44;66.88;99922.02;1779917;80;21124;-65
2021/05/30 05:18:21;;;;;;;3.00;2.00;;;;;;;16.41;66.96;99921.97;1780164;80;21131;-65
2021/05/30 05:20:50;;;;;;;3.77;2.20;;;;;;;16.43;67.10;99924.48;1780095;80;21860;-64
2021/05/30 05:23:20;;;;;;;8.40;2.52;;;;;;;16.38;67.20;99911.95;1780018;80;21856;-64
2021/05/30 05:25:51;;;;;;;5.08;2.70;;;;;;;16.37;67.49;99918.02;1780081;79;21140;-64
2021/05/30 05:28:19;;;;;;;3.00;2.15;;;;;;;16.29;67.82;99905.98;1779876;80;21101;-64
2021/05/30 05:30:46;;;;;;;2.80;2.35;;;;;;;16.29;67.97;99907.36;1779957;79;21398;-64
2021/05/30 05:33:15;;;;;;;4.25;2.60;;;;;;;16.25;67.79;99902.53;1779818;79;21399;-65
2021/05/30 05:35:44;;;;;;;3.42;2.27;;;;;;;16.22;68.08;99906.64;1779979;79;21299;-65
2021/05/30 05:38:11;;;;;;;3.30;2.52;;;;;;;16.22;68.28;99901.65;1779979;79;21183;-65
2021/05/30 05:40:39;;;;;;;3.47;2.20;;;;;;;16.24;68.28;99898.94;1779999;80;21140;-64
2021/05/30 05:43:07;;;;;;;5.22;2.58;;;;;;;16.22;68.36;99908.56;1779867;79;21254;-65
2021/05/30 05:45:35;;;;;;;2.47;2.27;;;;;;;16.23;68.47;99909.70;1762509;80;21152;-64
2021/05/30 05:48:05;;;;;;;2.42;2.22;;;;;;;16.23;68.44;99909.70;1779922;80;21136;-65
2021/05/30 05:50:33;;;;;;;3.22;2.60;;;;;;;16.24;68.21;99905.01;1746090;81;21844;-65
2021/05/30 05:53:01;;;;;;;3.35;2.62;;;;;;;16.29;68.18;99914.81;1742278;82;21477;-65
2021/05/30 05:55:28;;;;;;;5.05;2.42;;;;;;;16.35;68.12;99914.66;1740614;81;21150;-65
2021/05/30 05:57:55;;;;;;;3.98;2.42;;;;;;;16.37;67.89;99911.11;1737898;82;21843;-65
2021/05/30 06:00:23;;;;;;;3.42;2.62;;;;;;;16.44;67.72;99915.94;1740808;82;21826;-65
2021/05/30 06:02:51;;;;;;;2.75;2.45;;;;;;;16.52;67.48;99909.71;1719122;82;21825;-65
2021/05/30 06:05:22;;;;;;;5.83;2.42;;;;;;;16.59;67.23;99918.69;1693500;83;21292;-65
2021/05/30 06:07:52;;;;;;;2.27;2.05;;;;;;;16.63;66.34;99910.19;1672576;84;21162;-65
2021/05/30 06:10:23;;;;;;;5.83;2.27;;;;;;;16.60;66.12;99918.44;1687892;84;21154;-65
2021/05/30 06:12:54;;;;;;;3.65;2.10;;;;;;;16.57;66.02;99912.57;1687913;83;21570;-64
2021/05/30 06:15:24;;;;;;;2.50;2.00;;;;;;;16.62;65.67;99916.81;1687785;84;21183;-65
2021/05/30 06:17:55;;;;;;;5.03;2.02;;;;;;;16.65;65.32;99909.39;1690020;84;21830;-65
2021/05/30 06:20:22;;;;;;;4.72;2.45;;;;;;;16.72;65.33;99916.48;1689549;84;21146;-65
2021/05/30 06:22:50;;;;;;;2.80;2.08;;;;;;;16.84;65.40;99914.19;1687875;83;21167;-65
2021/05/30 06:25:17;;;;;;;4.33;2.40;;;;;;;16.92;65.24;99916.56;1687655;84;21163;-65
2021/05/30 06:27:45;;;;;;;2.37;2.15;;;;;;;16.97;64.99;99915.27;1689816;84;21361;-65
2021/05/30 06:30:14;;;;;;;4.42;2.85;;;;;;;17.02;64.97;99921.72;1689444;84;21389;-65
2021/05/30 06:32:42;;;;;;;2.72;2.50;;;;;;;17.03;64.85;99929.48;1689286;84;21200;-65
2021/05/30 06:35:09;;;;;;;4.87;2.25;;;;;;;17.01;64.53;99927.52;1690262;83;21231;-65
2021/05/30 06:37:37;;;;;;;3.50;2.65;;;;;;;17.00;64.59;99934.14;1689783;84;21416;-65
2021/05/30 06:40:06;;;;;;;4.15;2.60;;;;;;;17.01;64.68;99940.81;1686094;84;21466;-65
2021/05/30 06:42:33;;;;;;;3.60;3.20;;;;;;;17.07;64.54;99949.48;1687752;84;21413;-65
2021/05/30 06:45:01;;;;;;;4.97;2.70;;;;;;;17.16;64.15;99940.77;1689304;84;21932;-65
2021/05/30 06:47:28;;;;;;;5.10;2.70;;;;;;;17.18;63.87;99943.58;1690224;84;21501;-65
2021/05/30 06:49:55;;;;;;;3.10;2.30;;;;;;;17.22;63.73;99945.29;1689256;83;21253;-67
2021/05/30 06:52:23;;;;;;;6.08;2.65;;;;;;;17.32;63.53;99953.21;1690296;84;21325;-66
2021/05/30 06:54:51;;;;;;;7.75;3.85;;;;;;;17.38;63.06;99943.89;1696615;83;21214;-66
2021/05/30 06:57:18;;;;;;;3.47;3.17;;;;;;;17.43;62.91;99948.13;1697113;83;21980;-66
2021/05/30 06:59:47;;;;;;;4.60;2.80;;;;;;;17.48;62.71;99950.67;1700109;84;21155;-66
2021/05/30 07:02:16;;;;;;;6.97;3.22;;;;;;;17.56;62.48;99951.12;1700387;84;21908;-66
2021/05/30 07:04:43;;;;;;;4.47;2.35;;;;;;;17.68;62.25;99962.13;1700177;84;21356;-66
2021/05/30 07:07:11;;;;;;;4.30;2.50;;;;;;;17.71;61.55;99949.14;1700429;84;21920;-66
2021/05/30 07:09:40;;;;;;;3.70;2.42;;;;;;;17.74;61.12;99958.33;1699968;83;21182;-66
2021/05/30 07:12:09;;;;;;;5.37;2.62;;;;;;;17.76;61.28;99958.91;1698849;84;21157;-66
2021/05/30 07:14:37;;;;;;;9.25;3.00;;;;;;;17.84;61.33;99958.47;1699661;83;21151;-66
2021/05/30 07:17:04;;;;;;;3.33;2.62;;;;;;;17.89;60.92;99965.47;1700131;83;21166;-66
2021/05/30 07:19:32;;;;;;;5.17;2.60;;;;;;;17.91;60.87;99968.83;1696817;83;21400;-66
2021/05/30 07:22:00;;;;;;;5.28;3.05;;;;;;;17.96;60.30;99973.59;1700224;84;21452;-66
2021/05/30 07:24:28;;;;;;;3.90;2.00;;;;;;;17.94;60.01;99973.85;1699887;84;21155;-66
2021/05/30 07:26:55;;;;;;;2.70;2.00;;;;;;;17.97;59.17;99972.50;1699970;84;21149;-66
2021/05/30 07:29:23;;;;;;;4.30;1.80;;;;;;;18.03;59.13;99966.77;1700443;83;21389;-65
2021/05/30 07:31:50;;;;;;;2.55;1.70;;;;;;;18.15;58.18;99977.73;1699570;84;21176;-66
2021/05/30 07:34:18;;;;;;;2.90;1.80;;;;;;;18.19;57.82;99971.96;1697133;84;21169;-66
2021/05/30 07:36:47;;;;;;;3.15;1.90;;;;;;;18.22;56.96;99972.86;1700429;83;21183;-66
2021/05/30 07:39:15;;;;;;;3.95;1.60;;;;;;;18.25;56.77;99977.05;1700449;84;21462;-66
2021/05/30 07:41:44;;;;;;;2.00;1.82;;;;;;;18.28;56.66;99977.92;1700376;84;21693;-66
2021/05/30 07:44:11;;;;;;;3.65;2.70;;;;;;;18.35;56.58;99979.41;1699293;84;21402;-65
2021/05/30 07:46:38;;;;;;;3.27;2.10;;;;;;;18.43;56.70;99983.66;1700276;83;21466;-65
2021/05/30 07:49:07;;;;;;;2.40;1.80;;;;;;;18.50;56.59;99989.84;1700220;84;21236;-65
2021/05/30 07:51:35;;;;;;;3.47;1.75;;;;;;;18.54;56.05;99983.22;1698699;83;21416;-65
2021/05/30 07:54:02;;;;;;;2.15;1.35;;;;;;;18.55;55.45;99984.34;1700148;84;21889;-65
2021/05/30 07:56:30;;;;;;;1.67;1.57;;;;;;;18.57;55.07;99992.41;1701483;83;21189;-64
2021/05/30 07:58:58;;;;;;;2.60;1.70;;;;;;;18.54;54.53;99989.61;1699896;82;21241;-63
2021/05/30 08:01:25;;;;;;;3.55;1.70;;;;;;;18.43;54.90;99993.36;1699959;83;21129;-64
2021/05/30 08:03:53;;;;;;;10.88;2.00;;;;;;;18.42;55.37;99984.75;1701620;84;21144;-60
2021/05/30 08:06:20;;;;;;;2.50;1.60;;;;;;;18.44;55.28;99983.11;1702854;83;21157;-60
2021/05/30 08:08:47;;;;;;;4.70;1.52;;;;;;;18.45;55.28;99977.30;1700562;83;21230;-61
2021/05/30 08:11:15;;;;;;;2.37;1.40;;;;;;;18.49;55.40;99980.39;1700520;83;21478;-66
2021/05/30 08:13:42;;;;;;;4.92;1.80;;;;;;;18.60;55.26;99978.85;1701470;84;21317;-62
2021/05/30 08:16:10;;;;;;;3.00;1.60;;;;;;;18.71;55.17;99981.77;1700037;84;21930;-66
2021/05/30 08:18:41;;;;;;;3.55;1.90;;;;;;;18.76;55.02;99979.05;1725045;82;21896;-65
2021/05/30 08:21:10;;;;;;;1.82;1.60;;;;;;;18.83;55.05;99985.23;1692875;84;21797;-64
2021/05/30 08:23:40;;;;;;;6.15;2.30;;;;;;;18.87;54.95;99988.64;1701915;84;21858;-66
2021/05/30 08:26:08;;;;;;;3.12;1.57;;;;;;;18.86;54.73;99988.35;1699729;84;21154;-63
2021/05/30 08:28:36;;;;;;;2.20;1.57;;;;;;;18.91;54.58;99988.40;1700349;83;21135;-62
2021/05/30 08:31:04;;;;;;;4.08;1.90;;;;;;;19.00;54.44;99986.83;1701725;84;21380;-63
2021/05/30 08:33:31;;;;;;;3.40;2.10;;;;;;;19.10;54.08;99988.86;1700435;83;21198;-63
2021/05/30 08:35:59;;;;;;;3.62;1.70;;;;;;;19.16;54.19;99990.58;1699478;84;21459;-63
2021/05/30 08:38:27;;;;;;;5.17;2.00;;;;;;;19.23;53.86;99988.97;1701703;83;21153;-67
2021/05/30 08:40:57;;;;;;;5.45;1.80;;;;;;;19.24;54.06;99995.64;1700819;84;21447;-64
2021/05/30 08:43:26;;;;;;;3.58;1.70;;;;;;;19.27;54.05;99992.89;1701122;83;21390;-63
2021/05/30 08:45:55;;;;;;;1.77;1.45;;;;;;;19.29;53.73;99990.13;1699928;84;21149;-64
2021/05/30 08:48:23;;;;;;;2.58;1.57;;;;;;;19.27;53.61;99997.89;1699722;84;21206;-69
2021/05/30 08:51:05;;;;;;;6.30;1.90;;;;;;;19.22;53.74;99997.84;1699530;83;21174;-63
2021/05/30 08:53:37;;;;;;;4.03;1.70;;;;;;;19.17;53.91;100001.13;1700405;83;21286;-67
2021/05/30 08:56:06;;;;;;;3.80;1.45;;;;;;;19.08;54.18;99994.39;1692156;84;21289;-65
2021/05/30 08:58:45;;;;;;;3.72;1.55;;;;;;;18.94;54.00;100003.14;1693042;84;21322;-63
2021/05/30 09:01:18;;;;;;;2.15;1.40;;;;;;;18.78;54.55;100005.45;1692191;84;21493;-63
2021/05/30 09:04:06;;;;;;;1.90;1.50;;;;;;;18.58;54.93;100006.02;1695816;83;21210;-63
2021/05/30 09:06:34;;;;;;;;;;;;;;;18.49;55.49;100002.03;1696934;83;21380;-66
2021/05/30 09:09:04;;;;;;;3.20;2.00;;;;;;;18.46;55.36;100010.88;1695823;83;20184;-67
2021/05/30 09:11:47;;;;;;;3.42;1.80;;;;;;;18.40;55.97;100017.46;1679056;84;21897;-64
2021/05/30 09:14:18;;;;;;;4.45;2.42;;;;;;;18.44;56.32;100024.17;1741432;81;21300;-66
2021/05/30 09:17:11;;;;;;;2.40;1.60;;;;;;;18.51;56.33;100023.42;1741786;81;21186;-65
2021/05/30 09:19:53;;;;;;;4.78;2.10;;;;;;;18.46;56.14;100021.97;1739848;81;21826;-65
2021/05/30 09:22:30;;;;;;;2.67;1.57;;;;;;;18.35;56.53;100029.33;1740238;81;21153;-63
2021/05/30 09:25:10;;;;;;;3.37;1.90;;;;;;;18.27;56.52;100034.49;1740312;81;21972;-65
2021/05/30 09:27:45;;;;;;;5.12;1.77;;;;;;;18.13;56.80;100036.77;1739269;82;21166;-69
2021/05/30 09:30:23;;;;;;;5.80;2.05;;;;;;;18.02;56.97;100038.56;1741009;81;21213;-65
2021/05/30 09:33:03;;;;;;;3.55;1.52;;;;;;;17.95;57.24;100050.37;1742231;80;21412;-68
2021/05/30 09:35:44;;;;;;;2.65;1.52;;;;;;;17.91;57.47;100048.38;1740897;82;21552;-64
2021/05/30 09:38:17;;;;;;;4.25;1.87;;;;;;;17.89;57.26;100048.62;1739804;82;21401;-67
2021/05/30 09:40:53;;;;;;;2.77;1.70;;;;;;;17.81;57.24;100044.90;1740627;81;21426;-64
2021/05/30 09:43:39;;;;;;;4.17;1.87;;;;;;;17.72;57.62;100048.64;1738547;81;21911;-62
2021/05/30 09:46:13;;;;;;;2.67;1.65;;;;;;;17.71;57.63;100046.12;1740690;81;21145;-65
2021/05/30 09:48:52;;;;;;;2.37;1.80;;;;;;;17.72;57.97;100051.96;1741365;82;22110;-62
2021/05/30 09:51:44;;;;;;;4.42;2.20;;;;;;;17.74;57.85;100049.23;1738960;81;21142;-59
2021/05/30 09:54:18;;;;;;;9.63;3.12;;;;;;;17.74;57.76;100048.39;1741186;82;21870;-60
2021/05/30 09:56:53;;;;;;;3.45;2.50;;;;;;;17.70;58.00;100051.38;1740465;81;21390;-63
2021/05/30 09:59:56;;;;;;;4.08;2.00;;;;;;;17.67;58.05;100043.02;1739431;80;21884;-60
2021/05/30 10:02:24;;;;;;;3.22;2.30;;;;;;;17.67;58.19;100049.11;1742329;81;21111;-59
2021/05/30 10:04:51;;;;;;;3.70;2.08;;;;;;;17.59;58.25;100044.80;1741514;82;21331;-58
2021/05/30 10:07:18;;;;;;;3.45;1.98;;;;;;;17.58;58.42;100054.75;1735947;81;21220;-64
2021/05/30 10:09:48;;;;;;;2.80;2.17;;;;;;;17.61;58.46;100050.93;1737730;82;21968;-62
2021/05/30 10:12:15;;;;;;;4.62;2.40;;;;;;;17.66;58.36;100056.59;1740105;81;21172;-57
2021/05/30 10:14:43;;;;;;;3.55;2.27;;;;;;;17.71;58.37;100053.89;1740055;81;22112;-60
2021/05/30 10:17:10;;;;;;;3.00;2.22;;;;;;;17.74;58.40;100059.48;1740874;82;21264;-64
2021/05/30 10:19:44;;;;;;;5.45;2.22;;;;;;;17.81;58.39;100069.00;1741253;80;21189;-60
2021/05/30 10:22:11;;;;;;;2.98;2.08;;;;;;;17.85;58.15;100062.70;1739238;81;21236;-61
2021/05/30 10:24:39;;;;;;;4.58;2.25;;;;;;;17.88;57.59;100066.34;1740810;80;21178;-58
2021/05/30 10:27:20;;;;;;;4.83;2.40;;;;;;;17.84;57.50;100069.34;1739379;81;21357;-57
2021/05/30 10:30:13;;;;;;;5.03;2.20;;;;;;;17.80;57.62;100064.00;1740533;82;21392;-58
2021/05/30 10:32:46;;;;;;;4.75;2.25;;;;;;;17.81;57.85;100072.61;1739763;81;21141;-58
2021/05/30 10:35:24;;;;;;;2.90;2.20;;;;;;;17.84;57.69;100072.66;1739353;82;21202;-57
2021/05/30 10:37:55;;;;;;;2.58;2.37;;;;;;;17.86;57.52;100083.78;1716837;82;21540;-56
2021/05/30 10:40:32;;;;;;;2.95;2.22;;;;;;;17.84;57.72;100083.20;1741479;80;21253;-56
2021/05/30 10:43:13;;;;;;;5.85;2.50;;;;;;;17.81;57.89;100085.63;1740504;80;21166;-55
2021/05/30 10:45:51;;;;;;;4.78;2.50;;;;;;;17.75;58.08;100094.41;1738807;82;21181;-62
2021/05/30 10:48:19;;;;;;;4.62;3.50;;;;;;;17.69;58.39;100092.65;1738007;82;21842;-60
2021/05/30 10:51:07;;;;;;;6.92;3.60;;;;;;;17.67;58.56;100089.29;1740458;82;21522;-57
2021/05/30 10:53:51;;;;;;;5.20;2.75;;;;;;;17.62;58.70;100098.33;1741516;80;21131;-56
